sensor_id;sensor_type;location;lat;lon;timestamp;pressure;altitude;pressure_sealevel;temperature;humidity
64298;BME280;50639;53.270;7.956;2023-06-10T00:00:35;101811.25;;;15.74;59.51
64298;BME280;50639;53.270;7.956;2023-06-10T00:03:01;101807.34;;;15.77;59.88
64298;BME280;50639;53.270;7.956;2023-06-10T00:05:28;101825.31;;;15.63;60.06
64298;BME280;50639;53.270;7.956;2023-06-10T00:07:56;101823.00;;;15.60;60.15
64298;BME280;50639;53.270;7.956;2023-06-10T00:10:23;101827.75;;;15.58;60.67
64298;BME280;50639;53.270;7.956;2023-06-10T00:12:48;101829.19;;;15.54;60.60
64298;BME280;50639;53.270;7.956;2023-06-10T00:15:15;101826.84;;;15.51;60.53
64298;BME280;50639;53.270;7.956;2023-06-10T00:17:40;101818.34;;;15.48;60.75
64298;BME280;50639;53.270;7.956;2023-06-10T00:20:08;101816.03;;;15.44;60.63
64298;BME280;50639;53.270;7.956;2023-06-10T00:22:36;101823.88;;;15.39;60.52
64298;BME280;50639;53.270;7.956;2023-06-10T00:25:01;101818.91;;;15.36;60.72
64298;BME280;50639;53.270;7.956;2023-06-10T00:27:29;101823.78;;;15.26;61.20
64298;BME280;50639;53.270;7.956;2023-06-10T00:30:04;101829.13;;;15.20;61.27
64298;BME280;50639;53.270;7.956;2023-06-10T00:32:33;101827.81;;;15.09;61.17
64298;BME280;50639;53.270;7.956;2023-06-10T00:34:59;101826.09;;;15.01;62.66
64298;BME280;50639;53.270;7.956;2023-06-10T00:37:25;101828.16;;;14.99;62.06
64298;BME280;50639;53.270;7.956;2023-06-10T00:39:54;101823.59;;;15.00;62.24
64298;BME280;50639;53.270;7.956;2023-06-10T00:42:19;101821.00;;;14.85;63.01
64298;BME280;50639;53.270;7.956;2023-06-10T00:44:45;101826.56;;;14.84;63.03
64298;BME280;50639;53.270;7.956;2023-06-10T00:47:12;101824.63;;;14.78;63.76
64298;BME280;50639;53.270;7.956;2023-06-10T00:49:38;101830.78;;;14.72;63.16
64298;BME280;50639;53.270;7.956;2023-06-10T00:52:04;101828.50;;;14.68;64.08
64298;BME280;50639;53.270;7.956;2023-06-10T00:54:31;101820.94;;;14.57;64.35
64298;BME280;50639;53.270;7.956;2023-06-10T00:57:01;101816.13;;;14.53;65.05
64298;BME280;50639;53.270;7.956;2023-06-10T00:59:30;101825.63;;;14.49;64.69
64298;BME280;50639;53.270;7.956;2023-06-10T01:01:59;101829.34;;;14.48;64.60
64298;BME280;50639;53.270;7.956;2023-06-10T01:04:26;101834.00;;;14.39;65.43
64298;BME280;50639;53.270;7.956;2023-06-10T01:07:00;101837.78;;;14.30;66.42
64298;BME280;50639;53.270;7.956;2023-06-10T01:09:38;101839.47;;;14.31;66.95
64298;BME280;50639;53.270;7.956;2023-06-10T01:12:22;101839.66;;;14.29;67.32
64298;BME280;50639;53.270;7.956;2023-06-10T01:14:54;101830.22;;;14.19;67.99
64298;BME280;50639;53.270;7.956;2023-06-10T01:17:20;101836.16;;;14.14;68.13
64298;BME280;50639;53.270;7.956;2023-06-10T01:19:53;101838.22;;;14.12;68.82
64298;BME280;50639;53.270;7.956;2023-06-10T01:22:24;101832.19;;;14.10;68.89
64298;BME280;50639;53.270;7.956;2023-06-10T01:24:52;101831.53;;;14.08;69.90
64298;BME280;50639;53.270;7.956;2023-06-10T01:27:19;101840.06;;;14.12;70.54
64298;BME280;50639;53.270;7.956;2023-06-10T01:29:51;101848.78;;;14.14;69.98
64298;BME280;50639;53.270;7.956;2023-06-10T01:32:21;101837.13;;;14.07;70.16
64298;BME280;50639;53.270;7.956;2023-06-10T01:34:49;101846.19;;;14.06;70.26
64298;BME280;50639;53.270;7.956;2023-06-10T01:37:18;101840.16;;;14.04;70.61
64298;BME280;50639;53.270;7.956;2023-06-10T01:39:46;101835.56;;;13.98;72.07
64298;BME280;50639;53.270;7.956;2023-06-10T01:42:13;101842.13;;;13.95;71.99
64298;BME280;50639;53.270;7.956;2023-06-10T01:44:39;101840.72;;;13.99;72.79
64298;BME280;50639;53.270;7.956;2023-06-10T01:47:08;101834.91;;;13.96;72.93
64298;BME280;50639;53.270;7.956;2023-06-10T01:49:34;101839.81;;;13.92;73.17
64298;BME280;50639;53.270;7.956;2023-06-10T01:51:59;101838.53;;;13.88;74.53
64298;BME280;50639;53.270;7.956;2023-06-10T01:54:25;101834.44;;;13.92;73.66
64298;BME280;50639;53.270;7.956;2023-06-10T01:56:51;101832.16;;;13.89;74.54
64298;BME280;50639;53.270;7.956;2023-06-10T01:59:17;101837.69;;;13.87;74.79
64298;BME280;50639;53.270;7.956;2023-06-10T02:01:42;101843.63;;;13.83;74.59
64298;BME280;50639;53.270;7.956;2023-06-10T02:04:09;101841.31;;;13.80;76.68
64298;BME280;50639;53.270;7.956;2023-06-10T02:06:36;101840.09;;;13.82;75.74
64298;BME280;50639;53.270;7.956;2023-06-10T02:09:03;101851.22;;;13.79;75.81
64298;BME280;50639;53.270;7.956;2023-06-10T02:11:29;101852.91;;;13.80;75.47
64298;BME280;50639;53.270;7.956;2023-06-10T02:13:55;101852.06;;;13.80;76.83
64298;BME280;50639;53.270;7.956;2023-06-10T02:16:21;101859.66;;;13.76;76.02
64298;BME280;50639;53.270;7.956;2023-06-10T02:18:46;101859.66;;;13.76;76.73
64298;BME280;50639;53.270;7.956;2023-06-10T02:21:13;101859.00;;;13.74;77.10
64298;BME280;50639;53.270;7.956;2023-06-10T02:23:39;101861.50;;;13.61;77.63
64298;BME280;50639;53.270;7.956;2023-06-10T02:26:07;101869.91;;;13.58;78.13
64298;BME280;50639;53.270;7.956;2023-06-10T02:28:33;101866.56;;;13.56;78.86
64298;BME280;50639;53.270;7.956;2023-06-10T02:30:58;101871.13;;;13.55;78.13
64298;BME280;50639;53.270;7.956;2023-06-10T02:33:25;101868.72;;;13.61;78.22
64298;BME280;50639;53.270;7.956;2023-06-10T02:35:50;101862.88;;;13.57;78.60
64298;BME280;50639;53.270;7.956;2023-06-10T02:38:16;101869.75;;;13.60;78.42
64298;BME280;50639;53.270;7.956;2023-06-10T02:40:42;101868.63;;;13.54;78.01
64298;BME280;50639;53.270;7.956;2023-06-10T02:43:09;101871.84;;;13.49;77.66
64298;BME280;50639;53.270;7.956;2023-06-10T02:45:35;101872.03;;;13.48;78.61
64298;BME280;50639;53.270;7.956;2023-06-10T02:48:03;101875.56;;;13.48;78.07
64298;BME280;50639;53.270;7.956;2023-06-10T02:50:30;101876.56;;;13.47;78.84
64298;BME280;50639;53.270;7.956;2023-06-10T02:53:19;101879.63;;;13.44;78.59
64298;BME280;50639;53.270;7.956;2023-06-10T02:55:51;101876.28;;;13.42;78.95
64298;BME280;50639;53.270;7.956;2023-06-10T02:58:18;101877.50;;;13.40;79.52
64298;BME280;50639;53.270;7.956;2023-06-10T03:00:44;101877.50;;;13.40;79.12
64298;BME280;50639;53.270;7.956;2023-06-10T03:03:11;101881.66;;;13.42;79.36
64298;BME280;50639;53.270;7.956;2023-06-10T03:05:46;101871.69;;;13.36;80.35
64298;BME280;50639;53.270;7.956;2023-06-10T03:08:12;101882.19;;;13.38;79.73
64298;BME280;50639;53.270;7.956;2023-06-10T03:10:41;101880.56;;;13.37;79.42
64298;BME280;50639;53.270;7.956;2023-06-10T03:13:08;101884.44;;;13.34;79.94
64298;BME280;50639;53.270;7.956;2023-06-10T03:15:35;101884.78;;;13.31;79.89
64298;BME280;50639;53.270;7.956;2023-06-10T03:18:05;101883.94;;;13.31;80.00
64298;BME280;50639;53.270;7.956;2023-06-10T03:20:32;101885.97;;;13.29;80.48
64298;BME280;50639;53.270;7.956;2023-06-10T03:23:04;101880.44;;;13.30;80.15
64298;BME280;50639;53.270;7.956;2023-06-10T03:25:32;101887.47;;;13.31;80.51
64298;BME280;50639;53.270;7.956;2023-06-10T03:27:59;101892.00;;;13.31;79.93
64298;BME280;50639;53.270;7.956;2023-06-10T03:30:27;101899.03;;;13.32;79.96
64298;BME280;50639;53.270;7.956;2023-06-10T03:32:53;101896.72;;;13.29;80.56
64298;BME280;50639;53.270;7.956;2023-06-10T03:35:21;101898.03;;;13.33;80.12
64298;BME280;50639;53.270;7.956;2023-06-10T03:37:48;101901.53;;;13.33;80.53
64298;BME280;50639;53.270;7.956;2023-06-10T03:40:14;101896.66;;;13.37;80.27
64298;BME280;50639;53.270;7.956;2023-06-10T03:42:43;101899.13;;;13.38;80.18
64298;BME280;50639;53.270;7.956;2023-06-10T03:45:10;101907.31;;;13.45;79.97
64298;BME280;50639;53.270;7.956;2023-06-10T03:47:37;101903.59;;;13.46;79.89
64298;BME280;50639;53.270;7.956;2023-06-10T03:50:07;101903.22;;;13.49;80.02
64298;BME280;50639;53.270;7.956;2023-06-10T03:52:37;101896.84;;;13.50;79.62
64298;BME280;50639;53.270;7.956;2023-06-10T03:55:04;101904.25;;;13.48;79.74
64298;BME280;50639;53.270;7.956;2023-06-10T03:57:30;101902.78;;;13.45;80.30
64298;BME280;50639;53.270;7.956;2023-06-10T03:59:56;101906.09;;;13.47;79.91
64298;BME280;50639;53.270;7.956;2023-06-10T04:02:22;101911.09;;;13.50;80.13
64298;BME280;50639;53.270;7.956;2023-06-10T04:04:48;101906.84;;;13.56;79.57
64298;BME280;50639;53.270;7.956;2023-06-10T04:07:13;101900.94;;;13.61;79.38
64298;BME280;50639;53.270;7.956;2023-06-10T04:09:39;101906.31;;;13.61;79.57
64298;BME280;50639;53.270;7.956;2023-06-10T04:12:05;101900.94;;;13.61;79.68
64298;BME280;50639;53.270;7.956;2023-06-10T04:14:37;101897.59;;;13.59;79.59
64298;BME280;50639;53.270;7.956;2023-06-10T04:17:08;101905.66;;;13.59;79.83
64298;BME280;50639;53.270;7.956;2023-06-10T04:19:35;101904.06;;;13.64;79.18
64298;BME280;50639;53.270;7.956;2023-06-10T04:22:02;101900.28;;;13.59;79.93
64298;BME280;50639;53.270;7.956;2023-06-10T04:24:31;101909.66;;;13.63;79.18
64298;BME280;50639;53.270;7.956;2023-06-10T04:26:57;101902.88;;;13.67;79.14
64298;BME280;50639;53.270;7.956;2023-06-10T04:29:23;101904.00;;;13.72;78.72
64298;BME280;50639;53.270;7.956;2023-06-10T04:31:53;101903.63;;;13.75;79.11
64298;BME280;50639;53.270;7.956;2023-06-10T04:34:19;101903.28;;;13.78;79.16
64298;BME280;50639;53.270;7.956;2023-06-10T04:36:45;101904.94;;;13.79;78.81
64298;BME280;50639;53.270;7.956;2023-06-10T04:39:11;101904.28;;;13.77;79.00
64298;BME280;50639;53.270;7.956;2023-06-10T04:41:37;101901.25;;;13.80;78.88
64298;BME280;50639;53.270;7.956;2023-06-10T04:44:03;101899.66;;;13.86;78.67
64298;BME280;50639;53.270;7.956;2023-06-10T04:46:28;101903.19;;;13.86;78.55
64298;BME280;50639;53.270;7.956;2023-06-10T04:48:56;101900.31;;;13.88;78.01
64298;BME280;50639;53.270;7.956;2023-06-10T04:51:21;101907.63;;;13.94;78.18
64298;BME280;50639;53.270;7.956;2023-06-10T04:53:46;101901.88;;;13.97;77.69
64298;BME280;50639;53.270;7.956;2023-06-10T04:56:12;101905.19;;;13.99;77.47
64298;BME280;50639;53.270;7.956;2023-06-10T04:58:37;101903.44;;;14.06;77.82
64298;BME280;50639;53.270;7.956;2023-06-10T05:01:03;101902.22;;;14.09;77.49
64298;BME280;50639;53.270;7.956;2023-06-10T05:03:28;101906.66;;;14.16;77.43
64298;BME280;50639;53.270;7.956;2023-06-10T05:05:54;101895.38;;;14.21;76.75
64298;BME280;50639;53.270;7.956;2023-06-10T05:08:19;101900.25;;;14.32;76.48
64298;BME280;50639;53.270;7.956;2023-06-10T05:10:45;101898.78;;;14.29;76.58
64298;BME280;50639;53.270;7.956;2023-06-10T05:13:11;101894.31;;;14.37;76.55
64298;BME280;50639;53.270;7.956;2023-06-10T05:15:36;101895.81;;;14.39;76.36
64298;BME280;50639;53.270;7.956;2023-06-10T05:18:02;101901.63;;;14.43;75.97
64298;BME280;50639;53.270;7.956;2023-06-10T05:20:28;101899.66;;;14.51;75.97
64298;BME280;50639;53.270;7.956;2023-06-10T05:22:53;101902.16;;;14.53;75.59
64298;BME280;50639;53.270;7.956;2023-06-10T05:25:19;101898.16;;;14.63;75.01
64298;BME280;50639;53.270;7.956;2023-06-10T05:27:44;101902.50;;;14.64;74.77
64298;BME280;50639;53.270;7.956;2023-06-10T05:30:10;101914.16;;;14.72;74.70
64298;BME280;50639;53.270;7.956;2023-06-10T05:32:36;101912.59;;;14.77;74.21
64298;BME280;50639;53.270;7.956;2023-06-10T05:35:02;101906.81;;;14.80;74.37
64298;BME280;50639;53.270;7.956;2023-06-10T05:37:29;101918.28;;;14.89;73.95
64298;BME280;50639;53.270;7.956;2023-06-10T05:39:55;101914.25;;;14.99;73.42
64298;BME280;50639;53.270;7.956;2023-06-10T05:42:22;101915.53;;;15.03;73.26
64298;BME280;50639;53.270;7.956;2023-06-10T05:44:47;101916.81;;;15.07;72.66
64298;BME280;50639;53.270;7.956;2023-06-10T05:47:14;101914.81;;;15.16;72.94
64298;BME280;50639;53.270;7.956;2023-06-10T05:49:39;101916.53;;;15.24;72.56
64298;BME280;50639;53.270;7.956;2023-06-10T05:52:05;101904.16;;;15.29;72.21
64298;BME280;50639;53.270;7.956;2023-06-10T05:54:31;101913.19;;;15.22;72.41
64298;BME280;50639;53.270;7.956;2023-06-10T05:56:57;101912.44;;;15.28;72.25
64298;BME280;50639;53.270;7.956;2023-06-10T05:59:22;101914.16;;;15.35;72.38
64298;BME280;50639;53.270;7.956;2023-06-10T06:01:49;101911.66;;;15.34;72.98
64298;BME280;50639;53.270;7.956;2023-06-10T06:04:15;101913.78;;;15.38;72.77
64298;BME280;50639;53.270;7.956;2023-06-10T06:06:41;101913.84;;;15.52;72.45
64298;BME280;50639;53.270;7.956;2023-06-10T06:09:07;101910.84;;;15.61;72.33
64298;BME280;50639;53.270;7.956;2023-06-10T06:11:34;101905.69;;;15.66;72.14
64298;BME280;50639;53.270;7.956;2023-06-10T06:13:59;101909.91;;;15.75;72.28
64298;BME280;50639;53.270;7.956;2023-06-10T06:16:25;101913.31;;;15.91;70.61
64298;BME280;50639;53.270;7.956;2023-06-10T06:18:50;101906.09;;;15.98;70.64
64298;BME280;50639;53.270;7.956;2023-06-10T06:21:16;101913.56;;;15.96;70.53
64298;BME280;50639;53.270;7.956;2023-06-10T06:23:41;101912.97;;;16.00;69.86
64298;BME280;50639;53.270;7.956;2023-06-10T06:26:07;101910.72;;;16.10;69.53
64298;BME280;50639;53.270;7.956;2023-06-10T06:28:32;101912.63;;;16.16;69.49
64298;BME280;50639;53.270;7.956;2023-06-10T06:30:57;101911.81;;;16.23;68.87
64298;BME280;50639;53.270;7.956;2023-06-10T06:33:23;101906.44;;;16.29;68.51
64298;BME280;50639;53.270;7.956;2023-06-10T06:35:48;101908.56;;;16.34;68.69
64298;BME280;50639;53.270;7.956;2023-06-10T06:38:14;101904.81;;;16.35;68.48
64298;BME280;50639;53.270;7.956;2023-06-10T06:40:39;101904.44;;;16.44;68.53
64298;BME280;50639;53.270;7.956;2023-06-10T06:43:05;101901.75;;;16.44;68.39
64298;BME280;50639;53.270;7.956;2023-06-10T06:45:40;101911.09;;;16.55;68.02
64298;BME280;50639;53.270;7.956;2023-06-10T06:48:06;101905.16;;;16.66;67.83
64298;BME280;50639;53.270;7.956;2023-06-10T06:50:31;101900.84;;;16.78;67.72
64298;BME280;50639;53.270;7.956;2023-06-10T06:52:57;101896.66;;;16.89;67.51
64298;BME280;50639;53.270;7.956;2023-06-10T06:55:22;101907.06;;;16.92;67.25
64298;BME280;50639;53.270;7.956;2023-06-10T06:57:49;101902.09;;;16.96;66.93
64298;BME280;50639;53.270;7.956;2023-06-10T07:00:14;101900.84;;;16.98;66.89
64298;BME280;50639;53.270;7.956;2023-06-10T07:02:41;101903.75;;;17.03;66.82
64298;BME280;50639;53.270;7.956;2023-06-10T07:05:07;101900.66;;;17.13;66.68
64298;BME280;50639;53.270;7.956;2023-06-10T07:07:34;101898.16;;;17.11;66.77
64298;BME280;50639;53.270;7.956;2023-06-10T07:09:59;101897.97;;;17.13;67.46
64298;BME280;50639;53.270;7.956;2023-06-10T07:12:32;101906.47;;;17.29;66.74
64298;BME280;50639;53.270;7.956;2023-06-10T07:14:58;101905.41;;;17.44;66.44
64298;BME280;50639;53.270;7.956;2023-06-10T07:17:23;101902.53;;;17.39;65.91
64298;BME280;50639;53.270;7.956;2023-06-10T07:19:48;101915.81;;;17.47;65.81
64298;BME280;50639;53.270;7.956;2023-06-10T07:22:18;101911.63;;;17.51;65.40
64298;BME280;50639;53.270;7.956;2023-06-10T07:24:43;101919.97;;;17.56;65.50
64298;BME280;50639;53.270;7.956;2023-06-10T07:27:09;101918.28;;;17.61;65.49
64298;BME280;50639;53.270;7.956;2023-06-10T07:29:36;101915.84;;;17.66;65.46
64298;BME280;50639;53.270;7.956;2023-06-10T07:32:03;101919.53;;;17.79;65.56
64298;BME280;50639;53.270;7.956;2023-06-10T07:34:28;101917.03;;;17.90;64.54
64298;BME280;50639;53.270;7.956;2023-06-10T07:36:54;101918.69;;;17.91;65.18
64298;BME280;50639;53.270;7.956;2023-06-10T07:39:19;101919.91;;;17.95;65.30
64298;BME280;50639;53.270;7.956;2023-06-10T07:41:45;101916.34;;;18.08;64.84
64298;BME280;50639;53.270;7.956;2023-06-10T07:44:10;101917.78;;;18.17;63.41
64298;BME280;50639;53.270;7.956;2023-06-10T07:46:36;101920.84;;;18.27;63.94
64298;BME280;50639;53.270;7.956;2023-06-10T07:49:01;101917.53;;;18.25;63.29
64298;BME280;50639;53.270;7.956;2023-06-10T07:51:27;101921.91;;;18.26;62.75
64298;BME280;50639;53.270;7.956;2023-06-10T07:53:52;101929.59;;;18.29;63.04
64298;BME280;50639;53.270;7.956;2023-06-10T07:56:18;101922.28;;;18.36;63.49
64298;BME280;50639;53.270;7.956;2023-06-10T07:58:45;101915.16;;;18.42;63.60
64298;BME280;50639;53.270;7.956;2023-06-10T08:01:11;101922.25;;;18.43;62.82
64298;BME280;50639;53.270;7.956;2023-06-10T08:03:36;101912.63;;;18.54;62.49
64298;BME280;50639;53.270;7.956;2023-06-10T08:06:02;101915.94;;;18.56;62.58
64298;BME280;50639;53.270;7.956;2023-06-10T08:08:27;101912.19;;;18.57;63.03
64298;BME280;50639;53.270;7.956;2023-06-10T08:10:53;101902.56;;;18.67;62.87
64298;BME280;50639;53.270;7.956;2023-06-10T08:13:18;101908.53;;;18.76;62.79
64298;BME280;50639;53.270;7.956;2023-06-10T08:15:44;101902.84;;;18.91;62.52
64298;BME280;50639;53.270;7.956;2023-06-10T08:18:09;101908.16;;;19.04;62.35
64298;BME280;50639;53.270;7.956;2023-06-10T08:20:35;101902.25;;;19.13;61.71
64298;BME280;50639;53.270;7.956;2023-06-10T08:23:01;101907.44;;;19.15;60.76
64298;BME280;50639;53.270;7.956;2023-06-10T08:25:27;101900.38;;;19.14;61.14
64298;BME280;50639;53.270;7.956;2023-06-10T08:27:52;101900.88;;;19.29;62.24
64298;BME280;50639;53.270;7.956;2023-06-10T08:30:21;101904.66;;;19.46;59.83
64298;BME280;50639;53.270;7.956;2023-06-10T08:32:47;101900.38;;;19.39;60.18
64298;BME280;50639;53.270;7.956;2023-06-10T08:35:12;101910.09;;;19.46;60.07
64298;BME280;50639;53.270;7.956;2023-06-10T08:37:38;101904.88;;;19.51;60.61
64298;BME280;50639;53.270;7.956;2023-06-10T08:40:04;101906.91;;;19.56;60.72
64298;BME280;50639;53.270;7.956;2023-06-10T08:42:38;101900.53;;;19.69;59.48
64298;BME280;50639;53.270;7.956;2023-06-10T08:45:07;101896.81;;;19.63;59.46
64298;BME280;50639;53.270;7.956;2023-06-10T08:47:39;101897.13;;;19.73;60.29
64298;BME280;50639;53.270;7.956;2023-06-10T08:50:07;101897.22;;;19.85;59.81
64298;BME280;50639;53.270;7.956;2023-06-10T08:52:36;101892.16;;;19.88;59.45
64298;BME280;50639;53.270;7.956;2023-06-10T08:55:12;101902.03;;;20.01;58.74
64298;BME280;50639;53.270;7.956;2023-06-10T08:57:41;101905.28;;;20.10;58.75
64298;BME280;50639;53.270;7.956;2023-06-10T09:00:06;101906.34;;;20.09;59.16
64298;BME280;50639;53.270;7.956;2023-06-10T09:02:33;101898.88;;;20.22;59.13
64298;BME280;50639;53.270;7.956;2023-06-10T09:05:00;101905.50;;;20.26;57.95
64298;BME280;50639;53.270;7.956;2023-06-10T09:07:27;101902.94;;;20.32;58.38
64298;BME280;50639;53.270;7.956;2023-06-10T09:09:57;101903.31;;;20.35;58.74
64298;BME280;50639;53.270;7.956;2023-06-10T09:12:24;101899.13;;;20.51;58.05
64298;BME280;50639;53.270;7.956;2023-06-10T09:14:50;101898.25;;;20.57;57.89
64298;BME280;50639;53.270;7.956;2023-06-10T09:17:16;101899.81;;;20.64;57.35
64298;BME280;50639;53.270;7.956;2023-06-10T09:19:44;101905.13;;;20.71;57.25
64298;BME280;50639;53.270;7.956;2023-06-10T09:22:11;101901.84;;;20.81;56.54
64298;BME280;50639;53.270;7.956;2023-06-10T09:24:37;101901.84;;;20.81;57.70
64298;BME280;50639;53.270;7.956;2023-06-10T09:27:06;101890.78;;;20.94;57.51
64298;BME280;50639;53.270;7.956;2023-06-10T09:29:51;101890.19;;;21.03;57.10
64298;BME280;50639;53.270;7.956;2023-06-10T09:32:18;101888.34;;;21.16;57.14
64298;BME280;50639;53.270;7.956;2023-06-10T09:34:44;101883.38;;;21.13;56.99
64298;BME280;50639;53.270;7.956;2023-06-10T09:37:09;101879.75;;;21.19;56.92
64298;BME280;50639;53.270;7.956;2023-06-10T09:39:38;101880.59;;;21.19;58.07
64298;BME280;50639;53.270;7.956;2023-06-10T09:42:16;101871.13;;;21.22;55.92
64298;BME280;50639;53.270;7.956;2023-06-10T09:44:50;101881.19;;;20.50;57.70
64298;BME280;50639;53.270;7.956;2023-06-10T09:47:20;101874.47;;;20.52;58.64
64298;BME280;50639;53.270;7.956;2023-06-10T09:49:46;101871.59;;;20.65;58.32
64298;BME280;50639;53.270;7.956;2023-06-10T09:52:12;101869.53;;;20.91;58.16
64298;BME280;50639;53.270;7.956;2023-06-10T09:54:37;101879.94;;;21.06;57.40
64298;BME280;50639;53.270;7.956;2023-06-10T09:57:07;101880.78;;;21.06;56.42
64298;BME280;50639;53.270;7.956;2023-06-10T09:59:33;101881.53;;;20.72;57.25
64298;BME280;50639;53.270;7.956;2023-06-10T10:02:01;101880.78;;;21.06;56.91
64298;BME280;50639;53.270;7.956;2023-06-10T10:04:26;101880.59;;;21.31;57.22
64298;BME280;50639;53.270;7.956;2023-06-10T10:06:53;101871.03;;;21.28;56.27
64298;BME280;50639;53.270;7.956;2023-06-10T10:09:19;101875.59;;;21.16;57.04
64298;BME280;50639;53.270;7.956;2023-06-10T10:11:45;101867.69;;;21.50;54.71
64298;BME280;50639;53.270;7.956;2023-06-10T10:14:13;101872.19;;;21.56;55.02
64298;BME280;50639;53.270;7.956;2023-06-10T10:16:41;101866.38;;;21.64;56.07
64298;BME280;50639;53.270;7.956;2023-06-10T10:19:12;101870.97;;;21.75;55.31
64298;BME280;50639;53.270;7.956;2023-06-10T10:21:52;101873.56;;;21.82;53.85
64298;BME280;50639;53.270;7.956;2023-06-10T10:24:23;101867.88;;;21.95;53.58
64298;BME280;50639;53.270;7.956;2023-06-10T10:26:55;101869.19;;;21.92;53.54
64298;BME280;50639;53.270;7.956;2023-06-10T10:29:31;101864.91;;;22.08;55.70
64298;BME280;50639;53.270;7.956;2023-06-10T10:31:59;101867.84;;;22.18;54.27
64298;BME280;50639;53.270;7.956;2023-06-10T10:37:07;101864.53;;;22.44;53.55
64298;BME280;50639;53.270;7.956;2023-06-10T10:39:34;101862.81;;;22.55;53.97
64298;BME280;50639;53.270;7.956;2023-06-10T10:42:00;101867.44;;;22.55;53.24
64298;BME280;50639;53.270;7.956;2023-06-10T10:44:26;101868.13;;;22.62;51.49
64298;BME280;50639;53.270;7.956;2023-06-10T10:46:52;101868.53;;;22.70;51.43
64298;BME280;50639;53.270;7.956;2023-06-10T10:49:20;101871.16;;;22.77;52.63
64298;BME280;50639;53.270;7.956;2023-06-10T10:52:00;101867.47;;;22.71;50.51
64298;BME280;50639;53.270;7.956;2023-06-10T10:54:32;101869.34;;;22.82;52.08
64298;BME280;50639;53.270;7.956;2023-06-10T10:57:17;101870.09;;;22.78;51.70
64298;BME280;50639;53.270;7.956;2023-06-10T10:59:56;101869.69;;;23.03;51.39
64298;BME280;50639;53.270;7.956;2023-06-10T11:02:41;101872.72;;;22.89;50.50
64298;BME280;50639;53.270;7.956;2023-06-10T11:05:09;101874.38;;;23.07;51.27
64298;BME280;50639;53.270;7.956;2023-06-10T11:07:36;101868.03;;;23.18;51.56
64298;BME280;50639;53.270;7.956;2023-06-10T11:10:11;101871.31;;;23.37;50.70
64298;BME280;50639;53.270;7.956;2023-06-10T11:15:17;101861.66;;;23.46;49.54
64298;BME280;50639;53.270;7.956;2023-06-10T11:18:09;101854.38;;;23.52;49.20
64298;BME280;50639;53.270;7.956;2023-06-10T11:20:51;101855.28;;;23.57;48.68
64298;BME280;50639;53.270;7.956;2023-06-10T11:33:56;101852.31;;;23.81;49.07
64298;BME280;50639;53.270;7.956;2023-06-10T11:36:24;101859.94;;;24.00;48.67
64298;BME280;50639;53.270;7.956;2023-06-10T11:38:55;101854.25;;;24.24;45.91
64298;BME280;50639;53.270;7.956;2023-06-10T11:41:21;101846.97;;;24.13;45.65
64298;BME280;50639;53.270;7.956;2023-06-10T11:43:46;101851.09;;;24.15;46.24
64298;BME280;50639;53.270;7.956;2023-06-10T11:46:14;101846.09;;;24.29;44.89
64298;BME280;50639;53.270;7.956;2023-06-10T11:48:49;101844.44;;;24.28;46.87
64298;BME280;50639;53.270;7.956;2023-06-10T11:51:14;101841.41;;;24.51;46.57
64298;BME280;50639;53.270;7.956;2023-06-10T11:53:40;101838.06;;;24.44;45.31
64298;BME280;50639;53.270;7.956;2023-06-10T11:56:05;101840.63;;;24.56;46.86
64298;BME280;50639;53.270;7.956;2023-06-10T11:58:32;101842.47;;;24.77;45.37
64298;BME280;50639;53.270;7.956;2023-06-10T12:00:58;101839.91;;;24.92;45.00
64298;BME280;50639;53.270;7.956;2023-06-10T12:03:26;101832.59;;;25.03;43.59
64298;BME280;50639;53.270;7.956;2023-06-10T12:08:20;101832.94;;;25.11;43.86
64298;BME280;50639;53.270;7.956;2023-06-10T12:10:45;101820.13;;;25.17;43.24
64298;BME280;50639;53.270;7.956;2023-06-10T12:13:11;101818.00;;;25.24;43.16
64298;BME280;50639;53.270;7.956;2023-06-10T12:15:37;101828.19;;;25.39;41.84
64298;BME280;50639;53.270;7.956;2023-06-10T12:18:02;101824.06;;;25.36;40.62
64298;BME280;50639;53.270;7.956;2023-06-10T12:20:30;101824.72;;;25.54;41.17
64298;BME280;50639;53.270;7.956;2023-06-10T12:22:59;101833.56;;;25.66;40.79
64298;BME280;50639;53.270;7.956;2023-06-10T12:25:27;101827.03;;;25.72;40.75
64298;BME280;50639;53.270;7.956;2023-06-10T12:27:56;101812.00;;;25.74;38.28
64298;BME280;50639;53.270;7.956;2023-06-10T12:30:24;101821.28;;;25.78;38.24
64298;BME280;50639;53.270;7.956;2023-06-10T12:32:51;101815.84;;;25.83;37.61
64298;BME280;50639;53.270;7.956;2023-06-10T12:35:30;101818.59;;;25.83;39.00
64298;BME280;50639;53.270;7.956;2023-06-10T12:38:04;101810.16;;;26.00;36.51
64298;BME280;50639;53.270;7.956;2023-06-10T12:40:37;101811.50;;;25.98;37.58
64298;BME280;50639;53.270;7.956;2023-06-10T12:43:06;101809.34;;;26.05;38.81
64298;BME280;50639;53.270;7.956;2023-06-10T12:45:39;101807.19;;;26.17;38.82
64298;BME280;50639;53.270;7.956;2023-06-10T12:48:10;101810.19;;;26.15;38.40
64298;BME280;50639;53.270;7.956;2023-06-10T12:50:42;101800.56;;;25.93;36.89
64298;BME280;50639;53.270;7.956;2023-06-10T12:53:11;101802.78;;;26.01;37.91
64298;BME280;50639;53.270;7.956;2023-06-10T12:55:36;101800.84;;;26.01;38.79
64298;BME280;50639;53.270;7.956;2023-06-10T12:58:02;101797.13;;;26.28;37.07
64298;BME280;50639;53.270;7.956;2023-06-10T13:00:28;101800.69;;;26.33;35.71
64298;BME280;50639;53.270;7.956;2023-06-10T13:02:55;101793.28;;;26.29;36.33
64298;BME280;50639;53.270;7.956;2023-06-10T13:05:21;101793.56;;;26.37;36.04
64298;BME280;50639;53.270;7.956;2023-06-10T13:07:47;101786.63;;;26.09;37.18
64298;BME280;50639;53.270;7.956;2023-06-10T13:10:16;101792.22;;;26.45;37.00